Map

Track Data

SID SEASON NUMBER BASIN SUBBASIN NAME ISO_TIME NATURE LAT LON WMO_WIND WMO_PRES WMO_AGENCY TRACK_TYPE DIST2LAND LANDFALL IFLAG USA_AGENCY USA_ATCF_ID USA_LAT USA_LON USA_RECORD USA_STATUS USA_WIND USA_PRES USA_SSHS USA_R34_NE USA_R34_SE USA_R34_SW USA_R34_NW USA_R50_NE USA_R50_SE USA_R50_SW USA_R50_NW USA_R64_NE USA_R64_SE USA_R64_SW USA_R64_NW USA_POCI USA_ROCI USA_RMW USA_EYE TOKYO_LAT TOKYO_LON TOKYO_GRADE TOKYO_WIND TOKYO_PRES TOKYO_R50_DIR TOKYO_R50_LONG TOKYO_R50_SHORT TOKYO_R30_DIR TOKYO_R30_LONG TOKYO_R30_SHORT TOKYO_LAND CMA_LAT CMA_LON CMA_CAT CMA_WIND CMA_PRES HKO_LAT HKO_LON HKO_CAT HKO_WIND HKO_PRES NEWDELHI_LAT NEWDELHI_LON NEWDELHI_GRADE NEWDELHI_WIND NEWDELHI_PRES NEWDELHI_CI NEWDELHI_DP NEWDELHI_POCI REUNION_LAT REUNION_LON REUNION_TYPE REUNION_WIND REUNION_PRES REUNION_TNUM REUNION_CI REUNION_RMW REUNION_R34_NE REUNION_R34_SE REUNION_R34_SW REUNION_R34_NW REUNION_R50_NE REUNION_R50_SE REUNION_R50_SW REUNION_R50_NW REUNION_R64_NE REUNION_R64_SE REUNION_R64_SW REUNION_R64_NW BOM_LAT BOM_LON BOM_TYPE BOM_WIND BOM_PRES BOM_TNUM BOM_CI BOM_RMW BOM_R34_NE BOM_R34_SE BOM_R34_SW BOM_R34_NW BOM_R50_NE BOM_R50_SE BOM_R50_SW BOM_R50_NW BOM_R64_NE BOM_R64_SE BOM_R64_SW BOM_R64_NW BOM_ROCI BOM_POCI BOM_EYE BOM_POS_METHOD BOM_PRES_METHOD NADI_LAT NADI_LON NADI_CAT NADI_WIND NADI_PRES WELLINGTON_LAT WELLINGTON_LON WELLINGTON_WIND WELLINGTON_PRES DS824_LAT DS824_LON DS824_STAGE DS824_WIND DS824_PRES TD9636_LAT TD9636_LON TD9636_STAGE TD9636_WIND TD9636_PRES TD9635_LAT TD9635_LON TD9635_WIND TD9635_PRES TD9635_ROCI NEUMANN_LAT NEUMANN_LON NEUMANN_CLASS NEUMANN_WIND NEUMANN_PRES MLC_LAT MLC_LON MLC_CLASS MLC_WIND MLC_PRES USA_GUST BOM_GUST BOM_GUST_PER REUNION_GUST REUNION_GUST_PER USA_SEAHGT USA_SEARAD_NE USA_SEARAD_SE USA_SEARAD_SW USA_SEARAD_NW STORM_SPEED STORM_DIR
1917177N20088 1917 25 NI BB NOT_NAMED 1917-06-26 00:00:00 TS 19.9000 88.0000 main 137 137 _________O____ -1 19.9000 88.0000 TC 30 0 0
1917177N20088 1917 25 NI BB NOT_NAMED 1917-06-26 03:00:00 TS 19.9000 88.0000 main 137 137 _________PO___ -1 19.9000 88.0000 TC 30 19.9000 88.0000 1 0 0
1917177N20088 1917 25 NI BB NOT_NAMED 1917-06-26 06:00:00 TS 19.9013 87.9969 main 137 137 _________OP___ -1 19.9000 88.0000 TC 30 19.9031 87.9922 1 0 0
1917177N20088 1917 25 NI BB NOT_NAMED 1917-06-26 09:00:00 TS 19.9022 87.9946 main 137 137 _________PP___ -1 19.9000 88.0000 TC 30 19.9050 87.9875 1 0 0
1917177N20088 1917 25 NI BB NOT_NAMED 1917-06-26 12:00:00 TS 19.9022 87.9945 main 137 137 _________OP___ -1 19.9000 88.0000 TC 30 19.9044 87.9891 1 0 0
1917177N20088 1917 25 NI BB NOT_NAMED 1917-06-26 15:00:00 TS 19.9000 88.0000 main 137 137 _________PO___ -1 19.9000 88.0000 TC 30 19.9000 88.0000 1 0 0
1917177N20088 1917 25 NI BB NOT_NAMED 1917-06-26 18:00:00 TS 19.8959 88.0101 main 137 137 _________OP___ -1 19.9000 88.0000 TC 30 19.8918 88.0203 1 0 0
1917177N20088 1917 25 NI BB NOT_NAMED 1917-06-26 21:00:00 TS 19.8887 88.0262 main 137 137 _________PP___ -1 19.8925 88.0150 TC 30 19.8849 88.0374 1 0 0
1917177N20088 1917 25 NI BB NOT_NAMED 1917-06-27 00:00:00 TS 19.8928 88.0179 main 137 137 _________OP___ -1 19.9000 88.0000 TC 30 19.8856 88.0359 1 1 298
1917177N20088 1917 25 NI BB NOT_NAMED 1917-06-27 03:00:00 TS 19.9212 87.9613 main 137 122 _________PO___ -1 19.9425 87.9225 TC 30 19.9000 88.0000 1 2 296
1917177N20088 1917 25 NI BB NOT_NAMED 1917-06-27 06:00:00 TS 19.9658 87.8555 main 122 107 _________OP___ -1 20.0000 87.8000 TC 30 19.9316 87.9110 1 2 293
1917177N20088 1917 25 NI BB NOT_NAMED 1917-06-27 09:00:00 TS 20.0138 87.7225 main 107 91 _________PP___ -1 20.0500 87.6575 TC 30 19.9776 87.7875 1 3 291
1917177N20088 1917 25 NI BB NOT_NAMED 1917-06-27 12:00:00 TS 20.0674 87.5727 main 91 76 _________OP___ -1 20.1000 87.5000 TC 30 20.0347 87.6453 1 3 291
1917177N20088 1917 25 NI BB NOT_NAMED 1917-06-27 15:00:00 TS 20.1213 87.4212 main 76 61 _________PO___ -1 20.1425 87.3425 TC 30 20.1000 87.5000 1 2 294
1917177N20088 1917 25 NI BB NOT_NAMED 1917-06-27 18:00:00 TS 20.1650 87.3376 main 61 61 _________OP___ -1 20.2000 87.2000 TC 30 20.1300 87.4753 1 1 312
1917177N20088 1917 25 NI BB NOT_NAMED 1917-06-27 21:00:00 TS 20.2174 87.3123 main 61 45 _________PP___ -1 20.2619 87.1894 TC 30 20.1728 87.4352 1 2 312
1917177N20088 1917 25 NI BB NOT_NAMED 1917-06-28 00:00:00 TS 20.3271 87.1513 main 45 0 _________OP___ -1 20.4000 87.0000 TC 30 20.2542 87.3027 1 7 298
1917177N20088 1917 25 NI BB NOT_NAMED 1917-06-28 03:00:00 TS 20.5353 86.6740 main 0 0 _________PO___ -1 20.6706 86.3479 TC 30 20.4000 87.0000 1 12 294
1917177N20088 1917 25 NI BB NOT_NAMED 1917-06-28 06:00:00 TS 20.8143 85.9672 main 0 0 _________OP___ -1 21.0000 85.5000 TC 30 20.6286 86.4345 1 15 293
1917177N20088 1917 25 NI BB NOT_NAMED 1917-06-28 09:00:00 TS 21.1058 85.2264 main 0 0 _________PP___ -1 21.2921 84.7570 TC 30 20.9195 85.6958 1 16 293
1917177N20088 1917 25 NI BB NOT_NAMED 1917-06-28 12:00:00 TS 21.4252 84.4295 main 0 0 _________OP___ -1 21.6000 84.0000 TC 30 21.2503 84.8590 1 17 294
1917177N20088 1917 25 NI BB NOT_NAMED 1917-06-28 15:00:00 TS 21.7712 83.5999 main 0 0 _________PO___ -1 21.9423 83.1998 TC 30 21.6000 84.0000 1 17 295
1917177N20088 1917 25 NI BB NOT_NAMED 1917-06-28 18:00:00 TS 22.1285 82.7803 main 0 0 _________OP___ -1 22.3000 82.4000 TC 30 21.9570 83.1605 1 17 295
1917177N20088 1917 25 NI BB NOT_NAMED 1917-06-28 21:00:00 TS 22.4985 81.9537 main 0 0 _________PP___ -1 22.6727 81.5828 TC 30 22.3243 82.3247 1 16 296
1917177N20088 1917 25 NI BB NOT_NAMED 1917-06-29 00:00:00 TS 22.8396 81.2256 main 0 0 _________OP___ -1 23.0000 80.9000 TC 30 22.6792 81.5512 1 13 298
1917177N20088 1917 25 NI BB NOT_NAMED 1917-06-29 03:00:00 TS 23.1072 80.6909 main 0 0 _________PO___ -1 23.2144 80.4818 TC 30 23.0000 80.9000 1 10 300
1917177N20088 1917 25 NI BB NOT_NAMED 1917-06-29 06:00:00 TS 23.3254 80.3077 main 0 0 _________OP___ -1 23.4000 80.2000 TC 30 23.2508 80.4153 1 8 304
1917177N20088 1917 25 NI BB NOT_NAMED 1917-06-29 09:00:00 TS 23.5563 79.9689 main 0 0 _________PP___ -1 23.6425 79.8775 TC 30 23.4701 80.0603 1 7 310
1917177N20088 1917 25 NI BB NOT_NAMED 1917-06-29 12:00:00 TS 23.7898 79.7001 main 0 0 _________OP___ -1 23.9000 79.6000 TC 30 23.6796 79.8003 1 6 316
1917177N20088 1917 25 NI BB NOT_NAMED 1917-06-29 15:00:00 TS 24.0212 79.4850 main 0 0 _________PO___ -1 24.1425 79.3699 TC 30 23.9000 79.6000 1 6 324
1917177N20088 1917 25 NI BB NOT_NAMED 1917-06-29 18:00:00 TS 24.2556 79.3309 main 0 0 _________OP___ -1 24.4000 79.2000 TC 30 24.1473 79.4290 1 6 333
1917177N20088 1917 25 NI BB NOT_NAMED 1917-06-29 21:00:00 TS 24.5271 79.1997 main 0 0 _________PP___ -1 24.6900 79.0851 TC 30 24.4184 79.2762 1 6 338
1917177N20088 1917 25 NI BB NOT_NAMED 1917-06-30 00:00:00 TS 24.8035 79.0902 main 0 0 _________OP___ -1 25.0000 79.0000 TC 30 24.7053 79.1353 1 5 339
1917177N20088 1917 25 NI BB NOT_NAMED 1917-06-30 03:00:00 NR 25.0000 79.0000 main 0 __________O___ -1 TC 25.0000 79.0000 1 4 337

About IBTrACS Database

This database is a web-friendly format of International Best Track Archive for Climate Stewardship (IBTrACS), a global best track data archive curated by NOAA dating back to 1842.

Updated: 2021-12-03